Time;durP1;ratioP1;P1;durP2;ratioP2;P2;SDS_P1;SDS_P2;PMS_P1;PMS_P2;Temp;Humidity;BMP_temperature;BMP_pressure;BME280_temperature;BME280_humidity;BME280_pressure;Samples;Min_cycle;Max_cycle;Signal;HPM_P1;HPM_P2
2023/04/16 00:00:21;;;;;;;13.07;9.50;;;;;;;7.51;100.00;153289.28;5074038;28;20800;-76
2023/04/16 00:02:48;;;;;;;11.57;8.10;;;;;;;7.51;100.00;153287.97;5063129;28;20469;-77
2023/04/16 00:05:14;;;;;;;11.00;8.70;;;;;;;7.48;100.00;153281.50;5060695;28;20549;-77
2023/04/16 00:07:41;;;;;;;13.00;10.17;;;;;;;7.50;100.00;153286.66;5070008;28;20472;-77
2023/04/16 00:10:08;;;;;;;10.90;8.33;;;;;;;7.48;100.00;153280.22;5070797;28;20448;-76
2023/04/16 00:12:35;;;;;;;10.80;8.30;;;;;;;7.50;100.00;153285.38;5070671;28;20477;-76
2023/04/16 00:15:02;;;;;;;11.07;9.40;;;;;;;7.50;100.00;153285.38;5094075;28;20451;-76
2023/04/16 00:17:30;;;;;;;11.33;8.80;;;;;;;7.45;100.00;153272.47;5074728;28;20442;-76
2023/04/16 00:19:57;;;;;;;11.40;8.30;;;;;;;7.51;100.00;153287.97;5070784;28;20446;-76
2023/04/16 00:22:23;;;;;;;11.17;9.37;;;;;;;7.44;100.00;153269.91;5071390;28;20458;-76
2023/04/16 00:24:51;;;;;;;11.57;9.17;;;;;;;7.43;100.00;153268.59;5070031;28;20549;-77
2023/04/16 00:27:18;;;;;;;11.70;9.30;;;;;;;7.46;100.00;153275.06;5106351;28;20442;-76
2023/04/16 00:29:45;;;;;;;9.70;7.80;;;;;;;7.44;100.00;153269.91;5084790;28;20510;-76
2023/04/16 00:32:12;;;;;;;13.17;10.63;;;;;;;7.44;100.00;153269.91;5060901;28;20501;-76
2023/04/16 00:34:40;;;;;;;11.60;10.40;;;;;;;7.41;100.00;153262.16;5071810;28;20462;-76
2023/04/16 00:37:07;;;;;;;12.00;9.80;;;;;;;7.42;100.00;153264.69;5067964;28;20483;-76
2023/04/16 00:39:34;;;;;;;11.83;8.83;;;;;;;7.42;100.00;153266.00;5099969;28;20836;-76
2023/04/16 00:42:00;;;;;;;13.20;10.10;;;;;;;7.42;100.00;153264.69;5101317;28;20444;-76
2023/04/16 00:44:28;;;;;;;12.70;9.90;;;;;;;7.41;100.00;153262.16;5071731;28;20474;-76
2023/04/16 00:46:56;;;;;;;12.13;9.50;;;;;;;7.41;100.00;153262.16;5078058;28;20558;-76
2023/04/16 00:49:23;;;;;;;13.00;9.73;;;;;;;7.37;100.00;153253.09;5098762;28;20570;-76
2023/04/16 00:51:51;;;;;;;11.33;9.10;;;;;;;7.38;100.00;153254.41;5092367;28;20454;-76
2023/04/16 00:54:18;;;;;;;12.90;9.60;;;;;;;7.40;100.00;153259.53;5063375;28;20564;-76
2023/04/16 00:56:45;;;;;;;12.53;9.97;;;;;;;7.39;100.00;153257.00;5068121;28;20518;-76
2023/04/16 00:59:11;;;;;;;13.30;9.80;;;;;;;7.41;100.00;153263.44;5096513;28;20458;-76
2023/04/16 01:01:38;;;;;;;13.13;9.70;;;;;;;7.39;100.00;153258.25;5101262;28;20442;-77
2023/04/16 01:04:06;;;;;;;11.10;8.77;;;;;;;7.39;100.00;153258.25;5057719;28;20813;-75
2023/04/16 01:06:33;;;;;;;11.70;10.07;;;;;;;7.40;100.00;153259.53;5070520;28;20454;-75
2023/04/16 01:09:01;;;;;;;14.27;10.30;;;;;;;7.40;100.00;153259.53;5068735;28;20531;-75
2023/04/16 01:11:28;;;;;;;13.57;10.10;;;;;;;7.38;100.00;153254.41;5065880;28;20534;-74
2023/04/16 01:13:55;;;;;;;11.87;9.80;;;;;;;7.35;100.00;153249.25;5083172;28;20504;-74
2023/04/16 01:16:21;;;;;;;13.77;10.57;;;;;;;7.40;100.00;153259.53;5065922;28;20465;-74
2023/04/16 01:18:48;;;;;;;12.50;9.57;;;;;;;7.39;100.00;153258.25;5058274;28;20447;-77
2023/04/16 01:21:16;;;;;;;12.90;10.40;;;;;;;7.35;100.00;153249.25;5085030;28;20504;-74
2023/04/16 01:23:43;;;;;;;11.63;9.93;;;;;;;7.43;100.00;153268.59;5071158;28;20460;-74
2023/04/16 01:26:10;;;;;;;12.30;9.57;;;;;;;7.36;100.00;153251.78;5064277;28;20459;-75
2023/04/16 01:28:36;;;;;;;10.93;9.07;;;;;;;7.37;100.00;153253.09;5064570;28;20883;-75
2023/04/16 01:31:03;;;;;;;10.80;8.70;;;;;;;7.34;100.00;153246.63;5071184;28;20523;-75
2023/04/16 01:33:41;;;;;;;10.10;8.23;;;;;;;7.39;100.00;153257.00;5081453;28;20462;-76
2023/04/16 01:36:08;;;;;;;11.60;8.80;;;;;;;7.42;100.00;153264.69;5052755;28;20538;-76
2023/04/16 01:38:36;;;;;;;10.83;8.10;;;;;;;7.38;100.00;153255.69;5060884;28;20455;-76
2023/04/16 01:41:03;;;;;;;11.60;9.23;;;;;;;7.36;100.00;153250.50;5069476;28;20442;-76
2023/04/16 01:43:29;;;;;;;11.43;9.17;;;;;;;7.36;100.00;153251.78;5094512;28;20475;-76
2023/04/16 01:46:12;;;;;;;10.43;7.77;;;;;;;7.32;100.00;153241.47;5064464;28;20470;-76
2023/04/16 01:48:39;;;;;;;11.67;7.97;;;;;;;7.36;100.00;153251.78;5053683;28;20478;-76
2023/04/16 01:51:06;;;;;;;11.20;7.63;;;;;;;7.34;100.00;153246.63;5060646;28;20784;-76
2023/04/16 01:53:33;;;;;;;10.10;7.83;;;;;;;7.41;100.00;153262.16;5075583;28;20491;-76
2023/04/16 01:56:01;;;;;;;9.27;7.23;;;;;;;7.38;100.00;153254.41;5062069;28;20554;-76
2023/04/16 01:58:29;;;;;;;10.03;6.93;;;;;;;7.39;100.00;153257.00;5064009;28;20458;-74
2023/04/16 02:00:56;;;;;;;8.30;7.13;;;;;;;7.36;100.00;153250.50;5052759;28;20434;-75
2023/04/16 02:03:24;;;;;;;9.23;7.60;;;;;;;7.34;100.00;153246.63;5056444;28;20456;-75
2023/04/16 02:05:50;;;;;;;9.37;7.63;;;;;;;7.32;100.00;153241.47;5086447;28;20442;-75
2023/04/16 02:08:17;;;;;;;8.90;7.10;;;;;;;7.35;100.00;153249.25;5093393;28;20470;-75
2023/04/16 02:10:45;;;;;;;8.20;6.50;;;;;;;7.32;100.00;153241.47;5083555;28;20446;-75
2023/04/16 02:13:14;;;;;;;8.90;6.80;;;;;;;7.33;100.00;153242.78;5075505;28;20475;-75
2023/04/16 02:15:45;;;;;;;8.17;6.67;;;;;;;7.38;100.00;153254.41;5059737;28;20454;-75
2023/04/16 02:18:11;;;;;;;10.57;7.80;;;;;;;7.41;100.00;153262.16;5053988;28;20455;-75
2023/04/16 02:20:40;;;;;;;9.13;6.83;;;;;;;7.38;100.00;153254.41;5081094;28;20501;-75
2023/04/16 02:23:06;;;;;;;8.53;6.87;;;;;;;7.30;100.00;153235.03;5087906;28;20450;-75
2023/04/16 02:25:39;;;;;;;8.07;6.33;;;;;;;7.30;100.00;153236.34;5062463;28;20545;-75
2023/04/16 02:28:06;;;;;;;8.40;7.20;;;;;;;7.32;100.00;153241.47;5046926;28;20430;-75
2023/04/16 02:30:41;;;;;;;9.13;7.87;;;;;;;7.34;100.00;153245.34;5069365;28;20463;-75
2023/04/16 02:33:10;;;;;;;9.33;7.67;;;;;;;7.26;100.00;153225.97;5044819;28;20530;-75
2023/04/16 02:35:39;;;;;;;9.50;7.77;;;;;;;7.29;100.00;153233.72;5052649;28;20454;-77
2023/04/16 02:38:07;;;;;;;8.27;6.87;;;;;;;7.31;100.00;153238.88;5106323;28;20521;-76
2023/04/16 02:40:35;;;;;;;9.20;7.87;;;;;;;7.31;100.00;153238.88;5074285;28;21014;-75
2023/04/16 02:43:02;;;;;;;9.70;7.10;;;;;;;7.31;100.00;153238.88;5062657;28;20973;-75
2023/04/16 02:45:30;;;;;;;8.60;7.00;;;;;;;7.32;100.00;153241.47;5093958;28;20843;-75
2023/04/16 02:47:58;;;;;;;10.27;7.13;;;;;;;7.29;100.00;153232.44;5104808;28;20422;-75
2023/04/16 02:50:25;;;;;;;10.13;7.63;;;;;;;7.28;100.00;153229.88;5061658;28;21290;-75
2023/04/16 02:52:52;;;;;;;9.90;7.53;;;;;;;7.28;100.00;153231.13;5093677;28;20446;-75
2023/04/16 02:55:19;;;;;;;9.50;7.30;;;;;;;7.32;100.00;153241.47;5093589;28;20808;-75
2023/04/16 02:57:45;;;;;;;9.63;8.00;;;;;;;7.30;100.00;153236.34;5069590;28;20442;-75
2023/04/16 03:00:13;;;;;;;11.07;8.87;;;;;;;7.29;100.00;153233.72;5067767;28;20474;-75
2023/04/16 03:02:41;;;;;;;9.93;8.03;;;;;;;7.27;100.00;153227.28;5077040;28;20468;-75
2023/04/16 03:05:12;;;;;;;8.83;7.13;;;;;;;7.25;100.00;153223.38;5099612;28;20451;-75
2023/04/16 03:07:39;;;;;;;9.90;7.40;;;;;;;7.21;100.00;153213.06;5073093;28;20511;-75
2023/04/16 03:10:07;;;;;;;9.40;8.00;;;;;;;7.28;100.00;153229.88;5097360;28;20855;-75
2023/04/16 03:12:34;;;;;;;11.30;8.37;;;;;;;7.33;100.00;153242.78;5076536;28;20465;-76
2023/04/16 03:15:01;;;;;;;9.10;7.00;;;;;;;7.28;100.00;153231.13;5048205;28;20983;-75
2023/04/16 03:17:28;;;;;;;11.33;8.30;;;;;;;7.32;100.00;153241.47;5066634;28;20868;-76
2023/04/16 03:19:55;;;;;;;7.73;6.93;;;;;;;7.30;100.00;153236.34;5066435;28;20484;-75
2023/04/16 03:22:23;;;;;;;10.80;7.90;;;;;;;7.26;100.00;153225.97;5092620;28;20461;-75
2023/04/16 03:24:50;;;;;;;10.10;7.80;;;;;;;7.34;100.00;153245.34;5066751;28;20458;-76
2023/04/16 03:27:17;;;;;;;8.43;6.60;;;;;;;7.29;100.00;153233.72;5072280;28;20438;-75
2023/04/16 03:29:45;;;;;;;11.50;7.83;;;;;;;7.25;100.00;153223.38;5054910;28;20505;-75
2023/04/16 03:32:12;;;;;;;10.20;8.40;;;;;;;7.23;100.00;153218.22;5068542;28;20458;-75
2023/04/16 03:34:39;;;;;;;11.20;7.53;;;;;;;7.22;100.00;153215.66;5098452;28;20532;-75
2023/04/16 03:37:06;;;;;;;10.73;8.00;;;;;;;7.22;100.00;153215.66;5058203;28;20800;-76
2023/04/16 03:39:34;;;;;;;8.87;7.40;;;;;;;7.23;100.00;153218.22;5100560;28;20535;-75
2023/04/16 03:42:02;;;;;;;11.37;8.27;;;;;;;7.22;100.00;153214.38;5083476;28;20537;-76
2023/04/16 03:44:29;;;;;;;9.80;7.80;;;;;;;7.26;100.00;153224.66;5094381;28;20580;-75
2023/04/16 03:46:56;;;;;;;10.10;7.90;;;;;;;7.25;100.00;153222.13;5068321;28;20442;-75
2023/04/16 03:49:22;;;;;;;10.90;8.50;;;;;;;7.23;100.00;153218.22;5076279;28;20479;-76
2023/04/16 03:51:49;;;;;;;10.30;8.17;;;;;;;7.26;100.00;153224.66;5056106;28;20454;-75
2023/04/16 03:54:16;;;;;;;10.53;7.87;;;;;;;7.20;100.00;153210.47;5054497;28;20450;-75
2023/04/16 03:56:50;;;;;;;11.10;7.87;;;;;;;7.20;100.00;153209.22;5099977;28;20435;-75
2023/04/16 03:59:17;;;;;;;12.83;9.23;;;;;;;7.21;100.00;153211.78;5062135;28;20470;-75
2023/04/16 04:01:44;;;;;;;10.80;7.33;;;;;;;7.17;100.00;153202.75;5077495;28;20454;-75
2023/04/16 04:04:11;;;;;;;11.00;8.57;;;;;;;7.22;100.00;153214.38;5083572;28;20546;-76
2023/04/16 04:06:38;;;;;;;9.83;7.63;;;;;;;7.21;100.00;153211.78;5072512;28;20442;-75
2023/04/16 04:09:05;;;;;;;11.37;8.60;;;;;;;7.24;100.00;153220.81;5104585;28;20450;-75
2023/04/16 04:11:33;;;;;;;11.10;8.13;;;;;;;7.21;100.00;153213.06;5076041;28;20456;-76
2023/04/16 04:14:01;;;;;;;12.13;9.20;;;;;;;7.21;100.00;153213.06;5057203;28;20439;-76
2023/04/16 04:16:28;;;;;;;10.47;7.73;;;;;;;7.28;100.00;153231.13;5100528;28;20457;-76
2023/04/16 04:18:55;;;;;;;11.23;8.20;;;;;;;7.21;100.00;153213.06;5069530;28;20488;-76
2023/04/16 04:21:22;;;;;;;11.20;8.70;;;;;;;7.22;100.00;153215.66;5083711;28;20554;-75
2023/04/16 04:23:49;;;;;;;11.27;8.03;;;;;;;7.20;100.00;153210.47;5082508;28;20455;-75
2023/04/16 04:26:16;;;;;;;11.10;7.83;;;;;;;7.25;100.00;153223.38;5068173;28;20454;-75
2023/04/16 04:28:42;;;;;;;12.70;8.37;;;;;;;7.21;100.00;153213.06;5062400;28;20462;-75
2023/04/16 04:31:10;;;;;;;12.87;9.57;;;;;;;7.19;100.00;153207.91;5079955;28;20525;-75
2023/04/16 04:33:37;;;;;;;13.50;8.37;;;;;;;7.19;100.00;153207.91;5105828;28;20438;-75
2023/04/16 04:36:04;;;;;;;10.70;7.70;;;;;;;7.19;100.00;153207.91;5087619;28;20432;-75
2023/04/16 04:38:32;;;;;;;11.17;8.00;;;;;;;7.14;100.00;153195.00;5061220;28;20467;-75
2023/04/16 04:40:59;;;;;;;11.83;7.17;;;;;;;7.11;100.00;153187.25;5069023;28;20496;-76
2023/04/16 04:43:28;;;;;;;12.70;8.43;;;;;;;7.11;100.00;153187.25;5088599;28;20478;-77
2023/04/16 04:45:55;;;;;;;11.23;8.30;;;;;;;7.12;100.00;153189.81;5076397;28;20450;-76
2023/04/16 04:48:25;;;;;;;10.40;7.60;;;;;;;7.17;100.00;153201.47;5077511;28;20451;-75
2023/04/16 04:50:52;;;;;;;10.27;7.97;;;;;;;7.13;100.00;153192.41;5047813;28;20961;-75
2023/04/16 04:53:19;;;;;;;13.17;8.90;;;;;;;7.14;100.00;153193.72;5097035;28;20442;-75
2023/04/16 04:55:46;;;;;;;12.63;7.40;;;;;;;7.14;100.00;153195.00;5065799;28;20452;-75
2023/04/16 04:58:12;;;;;;;12.50;8.30;;;;;;;7.13;100.00;153191.09;5067270;28;20524;-75
2023/04/16 05:00:42;;;;;;;12.57;8.57;;;;;;;7.11;100.00;153185.94;5087524;28;20450;-75
2023/04/16 05:03:11;;;;;;;10.97;7.43;;;;;;;7.12;100.00;153189.81;5070147;28;20473;-75
2023/04/16 05:05:39;;;;;;;9.00;7.10;;;;;;;7.11;100.00;153187.25;5095795;28;20504;-75
2023/04/16 05:08:06;;;;;;;10.10;7.50;;;;;;;7.11;100.00;153187.25;5100660;28;20450;-75
2023/04/16 05:10:32;;;;;;;11.70;8.40;;;;;;;7.13;100.00;153192.41;5047788;28;20466;-75
2023/04/16 05:12:59;;;;;;;12.00;8.07;;;;;;;7.15;100.00;153196.25;5063761;28;20483;-76
2023/04/16 05:15:26;;;;;;;11.57;8.13;;;;;;;7.13;100.00;153191.09;5066154;28;20522;-75
2023/04/16 05:17:54;;;;;;;10.50;7.83;;;;;;;7.15;100.00;153197.56;5066905;28;20454;-74
2023/04/16 05:20:21;;;;;;;11.63;8.03;;;;;;;7.12;100.00;153188.56;5080270;28;20459;-75
2023/04/16 05:22:49;;;;;;;9.80;7.00;;;;;;;7.09;100.00;153182.09;5096510;28;20486;-74
2023/04/16 05:25:17;;;;;;;11.23;7.23;;;;;;;7.07;100.00;153176.91;5063592;28;20462;-75
2023/04/16 05:27:43;;;;;;;10.40;7.13;;;;;;;7.07;100.00;153176.91;5057975;28;20446;-75
2023/04/16 05:30:11;;;;;;;9.80;7.67;;;;;;;7.09;100.00;153182.09;5099767;28;20476;-75
2023/04/16 05:32:39;;;;;;;10.70;7.50;;;;;;;7.11;100.00;153187.25;5095880;28;20459;-74
2023/04/16 05:35:06;;;;;;;12.07;7.60;;;;;;;7.12;100.00;153189.81;5066378;28;21031;-75
2023/04/16 05:37:33;;;;;;;12.30;9.00;;;;;;;7.12;100.00;153189.81;5062891;28;20984;-75
2023/04/16 05:40:01;;;;;;;14.73;9.50;;;;;;;7.12;100.00;153188.56;5095212;28;20539;-75
2023/04/16 05:42:28;;;;;;;11.70;9.20;;;;;;;7.13;100.00;153191.09;5067373;28;20892;-76
2023/04/16 05:44:54;;;;;;;16.30;10.83;;;;;;;7.13;100.00;153192.41;5068702;28;20490;-75
2023/04/16 05:47:21;;;;;;;16.63;11.37;;;;;;;7.13;100.00;153192.41;5062545;28;22225;-74
2023/04/16 05:49:48;;;;;;;15.00;10.10;;;;;;;7.10;100.00;153184.66;5066592;28;20994;-75
2023/04/16 05:52:14;;;;;;;14.40;11.03;;;;;;;7.10;100.00;153184.66;5082885;28;20458;-75
2023/04/16 05:54:41;;;;;;;17.83;11.50;;;;;;;7.15;100.00;153196.25;5067475;28;20450;-76
2023/04/16 05:57:09;;;;;;;18.97;12.10;;;;;;;7.13;100.00;153192.41;5060053;28;20446;-76
2023/04/16 05:59:36;;;;;;;16.10;11.27;;;;;;;7.14;100.00;153195.00;5066067;28;20983;-76
2023/04/16 06:02:03;;;;;;;21.20;12.03;;;;;;;7.15;100.00;153197.56;5071414;28;20451;-76
2023/04/16 06:04:29;;;;;;;19.20;11.90;;;;;;;7.09;100.00;153180.81;5086266;28;20450;-75
2023/04/16 06:06:56;;;;;;;19.53;12.37;;;;;;;7.06;100.00;153174.34;5063368;28;20459;-77
2023/04/16 06:09:23;;;;;;;27.00;14.20;;;;;;;7.07;100.00;153176.91;5088130;28;20485;-76
2023/04/16 06:11:50;;;;;;;25.23;14.30;;;;;;;7.10;100.00;153184.66;5072460;28;20470;-75
2023/04/16 06:14:18;;;;;;;24.07;14.00;;;;;;;7.11;100.00;153187.25;5072473;28;20516;-75
2023/04/16 06:16:45;;;;;;;31.30;15.10;;;;;;;7.16;100.00;153198.84;5082505;28;20450;-75
2023/04/16 06:19:12;;;;;;;19.73;13.57;;;;;;;7.07;100.00;153176.91;5086567;28;20490;-75
2023/04/16 06:21:38;;;;;;;24.23;14.90;;;;;;;7.09;100.00;153180.81;5066258;28;20904;-75
2023/04/16 06:24:05;;;;;;;24.53;15.60;;;;;;;7.09;100.00;153182.09;5068754;28;20494;-76
2023/04/16 06:26:32;;;;;;;26.47;15.77;;;;;;;7.15;100.00;153197.56;5062813;28;20544;-75
2023/04/16 06:28:59;;;;;;;25.03;15.27;;;;;;;7.15;100.00;153197.56;5067573;28;20460;-76
2023/04/16 06:31:27;;;;;;;21.97;16.30;;;;;;;7.09;100.00;153182.09;5069834;28;20560;-76
2023/04/16 06:33:53;;;;;;;21.07;14.00;;;;;;;7.13;100.00;153192.41;5067571;28;21037;-76
2023/04/16 06:36:20;;;;;;;20.90;14.07;;;;;;;7.09;100.00;153180.81;5063586;28;20940;-75
2023/04/16 06:38:47;;;;;;;21.83;15.03;;;;;;;7.10;100.00;153184.66;5064960;28;20465;-75
2023/04/16 06:41:14;;;;;;;20.23;12.70;;;;;;;7.13;100.00;153192.41;5071279;28;20454;-75
2023/04/16 06:43:41;;;;;;;24.30;15.20;;;;;;;7.09;100.00;153180.81;5066046;28;20547;-75
2023/04/16 06:46:07;;;;;;;21.00;14.47;;;;;;;7.13;100.00;153192.41;5074245;28;20445;-76
2023/04/16 06:48:35;;;;;;;22.13;15.23;;;;;;;7.10;100.00;153184.66;5065681;28;20961;-75
2023/04/16 06:51:03;;;;;;;24.03;16.67;;;;;;;7.16;100.00;153200.16;5067084;28;20819;-76
2023/04/16 06:53:30;;;;;;;22.80;15.50;;;;;;;7.12;100.00;153189.81;5069266;28;20964;-76
2023/04/16 06:55:57;;;;;;;22.20;15.23;;;;;;;7.10;100.00;153184.66;5067352;28;20819;-77
2023/04/16 06:58:24;;;;;;;21.80;15.10;;;;;;;7.10;100.00;153184.66;5060968;28;20551;-81
2023/04/16 07:00:51;;;;;;;21.27;14.77;;;;;;;7.12;100.00;153188.56;5058324;28;20474;-82
2023/04/16 07:03:18;;;;;;;22.30;16.07;;;;;;;7.17;100.00;153202.75;5060914;28;20463;-81
2023/04/16 07:05:46;;;;;;;27.13;17.63;;;;;;;7.14;100.00;153195.00;5069180;28;20530;-82
2023/04/16 07:08:12;;;;;;;23.17;14.83;;;;;;;7.11;100.00;153185.94;5083082;28;20444;-81
2023/04/16 07:10:39;;;;;;;24.30;15.70;;;;;;;7.13;100.00;153192.41;5064899;28;20569;-82
2023/04/16 07:13:06;;;;;;;20.70;15.07;;;;;;;7.15;100.00;153197.56;5064659;28;20879;-82
2023/04/16 07:15:32;;;;;;;22.57;17.10;;;;;;;7.18;100.00;153205.31;5070501;28;20480;-83
2023/04/16 07:17:59;;;;;;;19.67;14.30;;;;;;;7.20;100.00;153210.47;5066491;28;21000;-82
2023/04/16 07:20:26;;;;;;;23.40;15.80;;;;;;;7.24;100.00;153220.81;5057258;28;20454;-83
2023/04/16 07:22:54;;;;;;;27.10;17.13;;;;;;;7.17;100.00;153202.75;5064707;28;20873;-82
2023/04/16 07:25:21;;;;;;;20.93;15.67;;;;;;;7.20;100.00;153210.47;5070274;28;20452;-83
2023/04/16 07:27:48;;;;;;;24.40;15.97;;;;;;;7.23;100.00;153218.22;5066003;28;20577;-82
2023/04/16 07:30:14;;;;;;;27.23;16.40;;;;;;;7.27;100.00;153228.56;5062895;28;20450;-82
2023/04/16 07:32:41;;;;;;;24.00;16.00;;;;;;;7.28;100.00;153229.88;5068478;28;20462;-82
2023/04/16 07:35:09;;;;;;;25.50;16.70;;;;;;;7.30;100.00;153236.34;5061112;28;20443;-82
2023/04/16 07:37:35;;;;;;;25.10;16.30;;;;;;;7.31;100.00;153238.88;5097174;28;21092;-81
2023/04/16 07:40:04;;;;;;;21.87;15.57;;;;;;;7.31;100.00;153238.88;5064147;28;20461;-82
2023/04/16 07:42:30;;;;;;;21.30;15.07;;;;;;;7.33;100.00;153242.78;5048578;28;20463;-82
2023/04/16 07:44:57;;;;;;;22.50;16.63;;;;;;;7.31;100.00;153238.88;5066885;28;20954;-81
2023/04/16 07:47:25;;;;;;;29.73;17.10;;;;;;;7.36;100.00;153251.78;5096765;28;20458;-82
2023/04/16 07:49:52;;;;;;;26.30;16.20;;;;;;;7.33;100.00;153244.03;5057956;28;20481;-82
2023/04/16 07:52:19;;;;;;;25.77;17.20;;;;;;;7.34;100.00;153246.63;5059993;28;20485;-82
2023/04/16 07:54:45;;;;;;;25.50;15.77;;;;;;;7.36;100.00;153251.78;5069889;28;20453;-82
2023/04/16 07:57:13;;;;;;;23.97;15.40;;;;;;;7.36;100.00;153250.50;5069122;28;20450;-82
2023/04/16 07:59:40;;;;;;;21.27;14.17;;;;;;;7.35;100.00;153247.94;5069369;28;21043;-82
2023/04/16 08:02:07;;;;;;;21.20;15.30;;;;;;;7.36;100.00;153250.50;5062304;28;20442;-82
2023/04/16 08:04:34;;;;;;;23.30;14.40;;;;;;;7.38;100.00;153254.41;5064860;28;20454;-82
2023/04/16 08:07:01;;;;;;;20.60;14.80;;;;;;;7.35;100.00;153247.94;5051001;28;20492;-82
2023/04/16 08:09:28;;;;;;;25.03;15.77;;;;;;;7.37;100.00;153253.09;5066912;28;20457;-82
2023/04/16 08:11:55;;;;;;;21.77;14.40;;;;;;;7.39;100.00;153258.25;5066553;28;20486;-82
2023/04/16 08:14:23;;;;;;;23.40;14.07;;;;;;;7.39;100.00;153258.25;5064880;28;20905;-82
2023/04/16 08:16:49;;;;;;;21.97;14.97;;;;;;;7.42;100.00;153264.69;5067351;28;20973;-83
2023/04/16 08:19:16;;;;;;;18.63;13.13;;;;;;;7.42;100.00;153264.69;5068504;28;20530;-82
2023/04/16 08:21:43;;;;;;;22.93;16.30;;;;;;;7.40;100.00;153260.84;5072083;28;20446;-82
2023/04/16 08:24:10;;;;;;;20.73;15.10;;;;;;;7.46;100.00;153276.34;5064393;28;20486;-82
2023/04/16 08:26:37;;;;;;;22.73;14.37;;;;;;;7.43;100.00;153268.59;5067553;28;21015;-82
2023/04/16 08:29:03;;;;;;;22.57;14.90;;;;;;;7.44;100.00;153271.16;5067445;28;20474;-82
2023/04/16 08:31:32;;;;;;;19.90;14.20;;;;;;;7.46;100.00;153275.06;5064105;28;20473;-86
2023/04/16 08:34:16;;;;;;;21.00;16.07;;;;;;;7.45;100.00;153272.47;5058498;28;20450;-81
2023/04/16 08:36:46;;;;;;;16.57;13.13;;;;;;;7.43;100.00;153268.59;5078990;28;20466;-82
2023/04/16 08:39:13;;;;;;;19.07;14.20;;;;;;;7.43;100.00;153268.59;5067473;28;20783;-81
2023/04/16 08:41:42;;;;;;;19.27;13.87;;;;;;;7.45;100.00;153273.75;5084078;28;20486;-82
2023/04/16 08:44:13;;;;;;;21.17;14.57;;;;;;;7.50;100.00;153285.38;5063741;28;20470;-82
2023/04/16 08:46:41;;;;;;;21.30;13.20;;;;;;;7.53;100.00;153294.44;5060778;28;20450;-82
2023/04/16 08:49:08;;;;;;;18.30;13.40;;;;;;;7.51;100.00;153287.97;5066979;28;20470;-82
2023/04/16 08:51:35;;;;;;;16.60;13.60;;;;;;;7.50;100.00;153286.66;5079380;28;20480;-82
2023/04/16 08:54:04;;;;;;;21.97;14.67;;;;;;;7.53;100.00;153293.13;5060777;28;20450;-82
2023/04/16 08:56:31;;;;;;;21.50;13.93;;;;;;;7.50;100.00;153286.66;5055660;28;20964;-82
2023/04/16 08:59:00;;;;;;;19.93;15.30;;;;;;;7.56;100.00;153300.88;5061329;28;20446;-83
2023/04/16 09:01:27;;;;;;;16.97;13.60;;;;;;;7.58;100.00;153306.03;5095507;28;20529;-81
2023/04/16 09:03:55;;;;;;;19.83;14.60;;;;;;;7.59;100.00;153309.94;5066704;28;20578;-82
2023/04/16 09:06:22;;;;;;;18.90;14.67;;;;;;;7.59;100.00;153308.63;5064023;28;20668;-82
2023/04/16 09:08:49;;;;;;;21.80;14.83;;;;;;;7.61;100.00;153315.09;5068867;28;20481;-82
2023/04/16 09:11:24;;;;;;;17.17;14.70;;;;;;;7.66;100.00;153326.72;5064691;28;20470;-82
2023/04/16 09:13:52;;;;;;;22.97;13.57;;;;;;;7.67;100.00;153329.31;5094427;28;20459;-82
2023/04/16 09:16:20;;;;;;;23.93;14.80;;;;;;;7.71;100.00;153339.63;5067376;28;20458;-82
2023/04/16 09:18:47;;;;;;;19.77;13.90;;;;;;;7.70;100.00;153337.06;5066184;28;20500;-83
2023/04/16 09:21:15;;;;;;;20.07;14.00;;;;;;;7.72;100.00;153342.22;5068382;28;20515;-83
2023/04/16 09:23:42;;;;;;;20.87;13.70;;;;;;;7.79;100.00;153360.28;5078526;28;20536;-83
2023/04/16 09:26:08;;;;;;;20.50;14.57;;;;;;;7.77;100.00;153355.13;5066849;28;20442;-83
2023/04/16 09:28:44;;;;;;;20.63;15.13;;;;;;;7.82;100.00;153368.03;5066282;28;20521;-82
2023/04/16 09:31:12;;;;;;;17.43;13.00;;;;;;;7.86;100.00;153378.41;5066010;28;20477;-83
2023/04/16 09:33:38;;;;;;;19.33;13.67;;;;;;;7.90;100.00;153390.03;5065626;28;20473;-83
2023/04/16 09:36:06;;;;;;;22.00;12.90;;;;;;;7.89;100.00;153387.41;5059814;28;20828;-83
2023/04/16 09:38:52;;;;;;;17.97;13.83;;;;;;;7.93;100.00;153396.47;5064531;28;20474;-83
2023/04/16 09:41:19;;;;;;;19.67;12.73;;;;;;;7.94;100.00;153399.09;5065572;28;20549;-82
2023/04/16 09:43:54;;;;;;;20.30;13.70;;;;;;;7.93;100.00;153397.78;5060360;28;20574;-82
2023/04/16 09:46:22;;;;;;;18.70;13.73;;;;;;;7.99;100.00;153412.00;5066394;28;20500;-82
2023/04/16 09:48:49;;;;;;;17.63;13.37;;;;;;;7.96;100.00;153404.22;5080649;28;20491;-83
2023/04/16 09:51:16;;;;;;;19.37;12.80;;;;;;;7.96;100.00;153405.53;5055097;28;20494;-83
2023/04/16 09:53:43;;;;;;;20.73;14.13;;;;;;;7.98;100.00;153410.69;5066546;28;20848;-83
2023/04/16 09:56:12;;;;;;;20.17;13.30;;;;;;;8.00;100.00;153414.53;5062323;28;20451;-83
2023/04/16 09:58:38;;;;;;;20.63;13.37;;;;;;;7.99;100.00;153412.00;5064460;28;20478;-83
2023/04/16 10:01:09;;;;;;;20.73;13.90;;;;;;;7.99;100.00;153412.00;5083238;28;20761;-83
2023/04/16 10:03:37;;;;;;;22.37;12.87;;;;;;;8.01;100.00;153415.84;5073530;28;20489;-83
2023/04/16 10:06:08;;;;;;;20.47;13.07;;;;;;;8.01;100.00;153415.84;5062996;28;20926;-84
2023/04/16 10:08:35;;;;;;;21.33;14.60;;;;;;;8.02;100.00;153418.44;5063408;28;20485;-83
2023/04/16 10:11:02;;;;;;;19.10;13.10;;;;;;;7.97;100.00;153408.09;5065555;28;20549;-83
2023/04/16 10:13:31;;;;;;;18.73;11.73;;;;;;;7.98;100.00;153409.41;5065571;28;21022;-83
2023/04/16 10:15:58;;;;;;;17.50;12.93;;;;;;;7.95;100.00;153402.94;5065324;28;20957;-83
2023/04/16 10:18:25;;;;;;;19.47;13.97;;;;;;;7.96;100.00;153405.53;5079968;28;20446;-84
2023/04/16 10:20:52;;;;;;;18.50;14.13;;;;;;;7.97;100.00;153406.78;5066412;28;20451;-83
2023/04/16 10:23:20;;;;;;;18.80;12.63;;;;;;;7.97;100.00;153408.09;5066457;28;20453;-83
2023/04/16 10:25:48;;;;;;;18.67;13.33;;;;;;;7.99;100.00;153412.00;5077124;28;20469;-83
2023/04/16 10:28:16;;;;;;;23.20;14.67;;;;;;;7.96;100.00;153404.22;5064703;28;20481;-83
2023/04/16 10:30:51;;;;;;;17.10;13.70;;;;;;;7.96;100.00;153404.22;5061579;28;20512;-83
2023/04/16 10:33:20;;;;;;;16.40;12.60;;;;;;;7.96;100.00;153404.22;5062726;28;20458;-83
2023/04/16 10:35:47;;;;;;;18.17;12.90;;;;;;;7.96;100.00;153404.22;5043928;28;20458;-83
2023/04/16 10:38:26;;;;;;;20.90;13.80;;;;;;;8.02;100.00;153419.75;5065800;28;20446;-83
2023/04/16 10:40:59;;;;;;;20.20;13.93;;;;;;;8.03;100.00;153422.31;5066798;28;20615;-83
2023/04/16 10:43:26;;;;;;;17.50;13.60;;;;;;;8.03;100.00;153422.31;5060423;28;21371;-83
2023/04/16 10:45:55;;;;;;;20.27;13.87;;;;;;;8.10;100.00;153440.38;5061499;28;20530;-83
2023/04/16 10:48:23;;;;;;;16.47;12.33;;;;;;;8.13;100.00;153448.13;5065582;28;20942;-83
2023/04/16 10:50:55;;;;;;;20.23;13.20;;;;;;;8.17;100.00;153457.19;5060559;28;20552;-83
2023/04/16 10:53:24;;;;;;;19.77;12.70;;;;;;;8.17;100.00;153458.50;5061692;28;20862;-83
2023/04/16 10:56:14;;;;;;;16.67;12.47;;;;;;;8.17;100.00;153458.50;5051956;28;20458;-83
2023/04/16 10:58:41;;;;;;;15.93;12.13;;;;;;;8.18;100.00;153461.06;5064174;28;20458;-81
2023/04/16 11:01:12;;;;;;;18.50;12.10;;;;;;;8.21;100.00;153467.50;5068344;28;20458;-83
2023/04/16 11:03:41;;;;;;;17.93;11.73;;;;;;;8.24;100.00;153476.59;5063408;28;20472;-83
2023/04/16 11:06:13;;;;;;;17.60;11.73;;;;;;;8.23;100.00;153474.03;5062166;28;20464;-84
2023/04/16 11:08:41;;;;;;;15.37;12.00;;;;;;;8.19;100.00;153463.66;5063285;28;20457;-82
2023/04/16 11:11:08;;;;;;;16.97;11.87;;;;;;;8.26;100.00;153480.50;5067720;28;20450;-83
2023/04/16 11:13:36;;;;;;;13.20;10.70;;;;;;;8.22;100.00;153470.13;5065429;28;20461;-83
2023/04/16 11:16:03;;;;;;;15.77;10.53;;;;;;;8.21;100.00;153468.81;5066630;28;20523;-83